Terminal Aerodrome Forecast
Issued by NWS Jackson, MS

Home | Current Version | Previous Version | Text Only | Print | Product List | Glossary On
Versions: 1 2 3 4 5 6 7 8 9 10 11 12 13
000
FTUS44 KJAN 221723
TAFGLH
TAF
KGLH 221723Z 2218/2318 25008KT P6SM -SHRA BKN011
     FM222100 33008KT P6SM VCSH BKN025
     FM230000 34007KT P6SM BKN025
     FM230500 33009KT P6SM FEW015 SCT250=

USA.gov is the U.S. government's official web portal to all federal, state and local government web resources and services.